sensor_id;sensor_type;location;lat;lon;timestamp;pressure;altitude;pressure_sealevel;temperature
15845;BMP180;50807;52.436;13.346;2023-04-01T00:00:23;99188.00;;;14.60
15845;BMP180;50807;52.436;13.346;2023-04-01T00:00:56;99183.00;;;14.60
15845;BMP180;50807;52.436;13.346;2023-04-01T00:01:29;99189.00;;;14.60
15845;BMP180;50807;52.436;13.346;2023-04-01T00:01:59;99185.00;;;14.60
15845;BMP180;50807;52.436;13.346;2023-04-01T00:02:31;99182.00;;;14.60
15845;BMP180;50807;52.436;13.346;2023-04-01T00:03:02;99187.00;;;14.60
15845;BMP180;50807;52.436;13.346;2023-04-01T00:03:33;99178.00;;;14.60
15845;BMP180;50807;52.436;13.346;2023-04-01T00:04:06;99188.00;;;14.60
15845;BMP180;50807;52.436;13.346;2023-04-01T00:04:37;99180.00;;;14.60
15845;BMP180;50807;52.436;13.346;2023-04-01T00:05:09;99180.00;;;14.60
15845;BMP180;50807;52.436;13.346;2023-04-01T00:05:41;99184.00;;;14.60
15845;BMP180;50807;52.436;13.346;2023-04-01T00:06:14;99182.00;;;14.60
15845;BMP180;50807;52.436;13.346;2023-04-01T00:06:47;99184.00;;;14.60
15845;BMP180;50807;52.436;13.346;2023-04-01T00:07:19;99182.00;;;14.60
15845;BMP180;50807;52.436;13.346;2023-04-01T00:07:50;99185.00;;;14.60
15845;BMP180;50807;52.436;13.346;2023-04-01T00:08:21;99184.00;;;14.60
15845;BMP180;50807;52.436;13.346;2023-04-01T00:08:53;99187.00;;;14.60
15845;BMP180;50807;52.436;13.346;2023-04-01T00:09:24;99186.00;;;14.70
15845;BMP180;50807;52.436;13.346;2023-04-01T00:09:55;99181.00;;;14.70
15845;BMP180;50807;52.436;13.346;2023-04-01T00:10:26;99182.00;;;14.70
15845;BMP180;50807;52.436;13.346;2023-04-01T00:10:57;99182.00;;;14.70
15845;BMP180;50807;52.436;13.346;2023-04-01T00:11:29;99183.00;;;14.70
15845;BMP180;50807;52.436;13.346;2023-04-01T00:12:00;99195.00;;;14.70
15845;BMP180;50807;52.436;13.346;2023-04-01T00:12:31;99179.00;;;14.70
15845;BMP180;50807;52.436;13.346;2023-04-01T00:13:03;99186.00;;;14.70
15845;BMP180;50807;52.436;13.346;2023-04-01T00:13:33;99185.00;;;14.70
15845;BMP180;50807;52.436;13.346;2023-04-01T00:14:04;99186.00;;;14.70
15845;BMP180;50807;52.436;13.346;2023-04-01T00:14:36;99193.00;;;14.70
15845;BMP180;50807;52.436;13.346;2023-04-01T00:15:10;99185.00;;;14.70
15845;BMP180;50807;52.436;13.346;2023-04-01T00:15:43;99185.00;;;14.70
15845;BMP180;50807;52.436;13.346;2023-04-01T00:16:14;99183.00;;;14.70
15845;BMP180;50807;52.436;13.346;2023-04-01T00:16:46;99185.00;;;14.70
15845;BMP180;50807;52.436;13.346;2023-04-01T00:17:17;99183.00;;;14.70
15845;BMP180;50807;52.436;13.346;2023-04-01T00:17:47;99181.00;;;14.70
15845;BMP180;50807;52.436;13.346;2023-04-01T00:18:20;99184.00;;;14.70
15845;BMP180;50807;52.436;13.346;2023-04-01T00:18:51;99192.00;;;14.70
15845;BMP180;50807;52.436;13.346;2023-04-01T00:19:22;99187.00;;;14.70
15845;BMP180;50807;52.436;13.346;2023-04-01T00:19:55;99184.00;;;14.70
15845;BMP180;50807;52.436;13.346;2023-04-01T00:20:26;99185.00;;;14.70
15845;BMP180;50807;52.436;13.346;2023-04-01T00:20:57;99190.00;;;14.70
15845;BMP180;50807;52.436;13.346;2023-04-01T00:21:27;99190.00;;;14.70
15845;BMP180;50807;52.436;13.346;2023-04-01T00:22:00;99186.00;;;14.70
15845;BMP180;50807;52.436;13.346;2023-04-01T00:22:31;99188.00;;;14.70
15845;BMP180;50807;52.436;13.346;2023-04-01T00:23:03;99191.00;;;14.70
15845;BMP180;50807;52.436;13.346;2023-04-01T00:23:35;99190.00;;;14.70
15845;BMP180;50807;52.436;13.346;2023-04-01T00:24:07;99192.00;;;14.70
15845;BMP180;50807;52.436;13.346;2023-04-01T00:24:38;99188.00;;;14.70
15845;BMP180;50807;52.436;13.346;2023-04-01T00:25:09;99190.00;;;14.70
15845;BMP180;50807;52.436;13.346;2023-04-01T00:25:41;99185.00;;;14.70
15845;BMP180;50807;52.436;13.346;2023-04-01T00:26:12;99189.00;;;14.70
15845;BMP180;50807;52.436;13.346;2023-04-01T00:26:44;99188.00;;;14.60
15845;BMP180;50807;52.436;13.346;2023-04-01T00:27:19;99188.00;;;14.60
15845;BMP180;50807;52.436;13.346;2023-04-01T00:27:50;99192.00;;;14.60
15845;BMP180;50807;52.436;13.346;2023-04-01T00:28:21;99181.00;;;14.70
15845;BMP180;50807;52.436;13.346;2023-04-01T00:28:53;99187.00;;;14.60
15845;BMP180;50807;52.436;13.346;2023-04-01T00:29:24;99193.00;;;14.60
15845;BMP180;50807;52.436;13.346;2023-04-01T00:29:55;99180.00;;;14.60
15845;BMP180;50807;52.436;13.346;2023-04-01T00:30:26;99189.00;;;14.60
15845;BMP180;50807;52.436;13.346;2023-04-01T00:30:57;99187.00;;;14.60
15845;BMP180;50807;52.436;13.346;2023-04-01T00:31:28;99187.00;;;14.60
15845;BMP180;50807;52.436;13.346;2023-04-01T00:32:00;99186.00;;;14.60
15845;BMP180;50807;52.436;13.346;2023-04-01T00:32:31;99189.00;;;14.60
15845;BMP180;50807;52.436;13.346;2023-04-01T00:33:02;99193.00;;;14.60
15845;BMP180;50807;52.436;13.346;2023-04-01T00:33:34;99189.00;;;14.60
15845;BMP180;50807;52.436;13.346;2023-04-01T00:34:06;99193.00;;;14.60
15845;BMP180;50807;52.436;13.346;2023-04-01T00:34:36;99187.00;;;14.60
15845;BMP180;50807;52.436;13.346;2023-04-01T00:35:10;99187.00;;;14.60
15845;BMP180;50807;52.436;13.346;2023-04-01T00:35:41;99184.00;;;14.60
15845;BMP180;50807;52.436;13.346;2023-04-01T00:36:15;99194.00;;;14.60
15845;BMP180;50807;52.436;13.346;2023-04-01T00:36:47;99192.00;;;14.60
15845;BMP180;50807;52.436;13.346;2023-04-01T00:37:20;99197.00;;;14.60
15845;BMP180;50807;52.436;13.346;2023-04-01T00:37:51;99197.00;;;14.60
15845;BMP180;50807;52.436;13.346;2023-04-01T00:38:22;99184.00;;;14.60
15845;BMP180;50807;52.436;13.346;2023-04-01T00:38:53;99199.00;;;14.60
15845;BMP180;50807;52.436;13.346;2023-04-01T00:39:24;99192.00;;;14.70
15845;BMP180;50807;52.436;13.346;2023-04-01T00:39:56;99190.00;;;14.70
15845;BMP180;50807;52.436;13.346;2023-04-01T00:40:33;99191.00;;;14.60
15845;BMP180;50807;52.436;13.346;2023-04-01T00:41:05;99186.00;;;14.60
15845;BMP180;50807;52.436;13.346;2023-04-01T00:41:36;99181.00;;;14.70
15845;BMP180;50807;52.436;13.346;2023-04-01T00:42:09;99186.00;;;14.70
15845;BMP180;50807;52.436;13.346;2023-04-01T00:42:41;99190.00;;;14.70
15845;BMP180;50807;52.436;13.346;2023-04-01T00:43:14;99187.00;;;14.70
15845;BMP180;50807;52.436;13.346;2023-04-01T00:43:48;99189.00;;;14.70
15845;BMP180;50807;52.436;13.346;2023-04-01T00:44:24;99193.00;;;14.60
15845;BMP180;50807;52.436;13.346;2023-04-01T00:44:56;99184.00;;;14.70
15845;BMP180;50807;52.436;13.346;2023-04-01T00:45:36;99184.00;;;14.60
15845;BMP180;50807;52.436;13.346;2023-04-01T00:46:08;99190.00;;;14.60
15845;BMP180;50807;52.436;13.346;2023-04-01T00:46:39;99190.00;;;14.70
15845;BMP180;50807;52.436;13.346;2023-04-01T00:47:10;99190.00;;;14.70
15845;BMP180;50807;52.436;13.346;2023-04-01T00:47:42;99190.00;;;14.70
15845;BMP180;50807;52.436;13.346;2023-04-01T00:48:18;99192.00;;;14.70
15845;BMP180;50807;52.436;13.346;2023-04-01T00:48:54;99187.00;;;14.70
15845;BMP180;50807;52.436;13.346;2023-04-01T00:49:30;99192.00;;;14.70
15845;BMP180;50807;52.436;13.346;2023-04-01T00:50:01;99186.00;;;14.70
15845;BMP180;50807;52.436;13.346;2023-04-01T00:50:34;99185.00;;;14.70
15845;BMP180;50807;52.436;13.346;2023-04-01T00:51:09;99187.00;;;14.70
15845;BMP180;50807;52.436;13.346;2023-04-01T00:51:45;99189.00;;;14.70
15845;BMP180;50807;52.436;13.346;2023-04-01T00:52:23;99190.00;;;14.70
15845;BMP180;50807;52.436;13.346;2023-04-01T00:52:56;99181.00;;;14.70
15845;BMP180;50807;52.436;13.346;2023-04-01T00:53:31;99190.00;;;14.70
15845;BMP180;50807;52.436;13.346;2023-04-01T00:54:03;99183.00;;;14.70
15845;BMP180;50807;52.436;13.346;2023-04-01T00:54:37;99178.00;;;14.70
15845;BMP180;50807;52.436;13.346;2023-04-01T00:55:13;99189.00;;;14.70
15845;BMP180;50807;52.436;13.346;2023-04-01T00:55:51;99192.00;;;14.70
15845;BMP180;50807;52.436;13.346;2023-04-01T00:56:30;99191.00;;;14.70
15845;BMP180;50807;52.436;13.346;2023-04-01T00:57:06;99188.00;;;14.70
15845;BMP180;50807;52.436;13.346;2023-04-01T00:57:39;99180.00;;;14.70
15845;BMP180;50807;52.436;13.346;2023-04-01T00:58:17;99184.00;;;14.70
15845;BMP180;50807;52.436;13.346;2023-04-01T00:58:57;99189.00;;;14.70
15845;BMP180;50807;52.436;13.346;2023-04-01T00:59:32;99192.00;;;14.70
15845;BMP180;50807;52.436;13.346;2023-04-01T01:00:10;99183.00;;;14.70
15845;BMP180;50807;52.436;13.346;2023-04-01T01:00:42;99188.00;;;14.80
15845;BMP180;50807;52.436;13.346;2023-04-01T01:01:13;99188.00;;;14.80
15845;BMP180;50807;52.436;13.346;2023-04-01T01:01:45;99182.00;;;14.80
15845;BMP180;50807;52.436;13.346;2023-04-01T01:02:16;99188.00;;;14.80
15845;BMP180;50807;52.436;13.346;2023-04-01T01:02:50;99192.00;;;14.80
15845;BMP180;50807;52.436;13.346;2023-04-01T01:03:22;99193.00;;;14.80
15845;BMP180;50807;52.436;13.346;2023-04-01T01:03:53;99179.00;;;14.80
15845;BMP180;50807;52.436;13.346;2023-04-01T01:04:28;99189.00;;;14.80
15845;BMP180;50807;52.436;13.346;2023-04-01T01:05:01;99192.00;;;14.80
15845;BMP180;50807;52.436;13.346;2023-04-01T01:05:51;99190.00;;;14.70
15845;BMP180;50807;52.436;13.346;2023-04-01T01:06:39;99183.00;;;14.60
15845;BMP180;50807;52.436;13.346;2023-04-01T01:07:26;99185.00;;;14.60
15845;BMP180;50807;52.436;13.346;2023-04-01T01:08:04;99177.00;;;14.60
15845;BMP180;50807;52.436;13.346;2023-04-01T01:09:03;99183.00;;;14.60
15845;BMP180;50807;52.436;13.346;2023-04-01T01:09:46;99193.00;;;14.50
15845;BMP180;50807;52.436;13.346;2023-04-01T01:10:24;99191.00;;;14.60
15845;BMP180;50807;52.436;13.346;2023-04-01T01:10:56;99189.00;;;14.60
15845;BMP180;50807;52.436;13.346;2023-04-01T01:11:37;99192.00;;;14.60
15845;BMP180;50807;52.436;13.346;2023-04-01T01:12:14;99187.00;;;14.60
15845;BMP180;50807;52.436;13.346;2023-04-01T01:12:55;99191.00;;;14.60
15845;BMP180;50807;52.436;13.346;2023-04-01T01:13:37;99188.00;;;14.60
15845;BMP180;50807;52.436;13.346;2023-04-01T01:14:25;99183.00;;;14.50
15845;BMP180;50807;52.436;13.346;2023-04-01T01:15:11;99192.00;;;14.50
15845;BMP180;50807;52.436;13.346;2023-04-01T01:15:51;99187.00;;;14.50
15845;BMP180;50807;52.436;13.346;2023-04-01T01:16:28;99191.00;;;14.60
15845;BMP180;50807;52.436;13.346;2023-04-01T01:17:12;99192.00;;;14.50
15845;BMP180;50807;52.436;13.346;2023-04-01T01:17:56;99194.00;;;14.50
15845;BMP180;50807;52.436;13.346;2023-04-01T01:18:37;99189.00;;;14.50
15845;BMP180;50807;52.436;13.346;2023-04-01T01:19:33;99193.00;;;14.40
15845;BMP180;50807;52.436;13.346;2023-04-01T01:20:41;99198.00;;;14.40
15845;BMP180;50807;52.436;13.346;2023-04-01T01:21:47;99201.00;;;14.30
15845;BMP180;50807;52.436;13.346;2023-04-01T01:22:47;99197.00;;;14.30
15845;BMP180;50807;52.436;13.346;2023-04-01T01:23:52;99189.00;;;14.30
15845;BMP180;50807;52.436;13.346;2023-04-01T01:24:53;99193.00;;;14.30
15845;BMP180;50807;52.436;13.346;2023-04-01T01:25:40;99193.00;;;14.30
15845;BMP180;50807;52.436;13.346;2023-04-01T01:26:42;99191.00;;;14.30
15845;BMP180;50807;52.436;13.346;2023-04-01T01:27:17;99195.00;;;14.30
15845;BMP180;50807;52.436;13.346;2023-04-01T01:28:01;99193.00;;;14.30
15845;BMP180;50807;52.436;13.346;2023-04-01T01:28:46;99196.00;;;14.30
15845;BMP180;50807;52.436;13.346;2023-04-01T01:29:54;99196.00;;;14.30
15845;BMP180;50807;52.436;13.346;2023-04-01T01:30:39;99197.00;;;14.30
15845;BMP180;50807;52.436;13.346;2023-04-01T01:31:20;99186.00;;;14.30
15845;BMP180;50807;52.436;13.346;2023-04-01T01:32:03;99193.00;;;14.30
15845;BMP180;50807;52.436;13.346;2023-04-01T01:33:06;99196.00;;;14.30
15845;BMP180;50807;52.436;13.346;2023-04-01T01:33:57;99191.00;;;14.20
15845;BMP180;50807;52.436;13.346;2023-04-01T01:34:37;99194.00;;;14.30
15845;BMP180;50807;52.436;13.346;2023-04-01T01:35:20;99189.00;;;14.30
15845;BMP180;50807;52.436;13.346;2023-04-01T01:35:54;99183.00;;;14.40
15845;BMP180;50807;52.436;13.346;2023-04-01T01:36:31;99193.00;;;14.40
15845;BMP180;50807;52.436;13.346;2023-04-01T01:37:11;99198.00;;;14.40
15845;BMP180;50807;52.436;13.346;2023-04-01T01:37:46;99197.00;;;14.40
15845;BMP180;50807;52.436;13.346;2023-04-01T01:38:21;99188.00;;;14.50
15845;BMP180;50807;52.436;13.346;2023-04-01T01:38:55;99195.00;;;14.50
15845;BMP180;50807;52.436;13.346;2023-04-01T01:39:32;99193.00;;;14.50
15845;BMP180;50807;52.436;13.346;2023-04-01T01:40:09;99188.00;;;14.50
15845;BMP180;50807;52.436;13.346;2023-04-01T01:40:46;99194.00;;;14.50
15845;BMP180;50807;52.436;13.346;2023-04-01T01:41:22;99190.00;;;14.50
15845;BMP180;50807;52.436;13.346;2023-04-01T01:42:02;99191.00;;;14.50
15845;BMP180;50807;52.436;13.346;2023-04-01T01:42:38;99195.00;;;14.50
15845;BMP180;50807;52.436;13.346;2023-04-01T01:43:15;99190.00;;;14.50
15845;BMP180;50807;52.436;13.346;2023-04-01T01:43:50;99190.00;;;14.50
15845;BMP180;50807;52.436;13.346;2023-04-01T01:44:23;99190.00;;;14.60
15845;BMP180;50807;52.436;13.346;2023-04-01T01:44:58;99189.00;;;14.60
15845;BMP180;50807;52.436;13.346;2023-04-01T01:45:34;99187.00;;;14.60
15845;BMP180;50807;52.436;13.346;2023-04-01T01:46:10;99188.00;;;14.60
15845;BMP180;50807;52.436;13.346;2023-04-01T01:46:44;99190.00;;;14.60
15845;BMP180;50807;52.436;13.346;2023-04-01T01:47:18;99196.00;;;14.60
15845;BMP180;50807;52.436;13.346;2023-04-01T01:47:51;99191.00;;;14.70
15845;BMP180;50807;52.436;13.346;2023-04-01T01:48:26;99190.00;;;14.60
15845;BMP180;50807;52.436;13.346;2023-04-01T01:49:00;99190.00;;;14.60
15845;BMP180;50807;52.436;13.346;2023-04-01T01:49:36;99190.00;;;14.60
15845;BMP180;50807;52.436;13.346;2023-04-01T01:50:09;99198.00;;;14.60
15845;BMP180;50807;52.436;13.346;2023-04-01T01:50:44;99194.00;;;14.60
15845;BMP180;50807;52.436;13.346;2023-04-01T01:51:18;99195.00;;;14.70
15845;BMP180;50807;52.436;13.346;2023-04-01T01:51:49;99196.00;;;14.70
15845;BMP180;50807;52.436;13.346;2023-04-01T01:52:21;99199.00;;;14.70
15845;BMP180;50807;52.436;13.346;2023-04-01T01:53:02;99182.00;;;14.60
15845;BMP180;50807;52.436;13.346;2023-04-01T01:53:34;99194.00;;;14.70
15845;BMP180;50807;52.436;13.346;2023-04-01T01:54:04;99196.00;;;14.70
15845;BMP180;50807;52.436;13.346;2023-04-01T01:54:46;99192.00;;;14.70
15845;BMP180;50807;52.436;13.346;2023-04-01T01:55:28;99199.00;;;14.60
15845;BMP180;50807;52.436;13.346;2023-04-01T01:56:00;99200.00;;;14.70
15845;BMP180;50807;52.436;13.346;2023-04-01T01:56:34;99193.00;;;14.70
15845;BMP180;50807;52.436;13.346;2023-04-01T01:57:09;99195.00;;;14.70
15845;BMP180;50807;52.436;13.346;2023-04-01T01:57:42;99193.00;;;14.70
15845;BMP180;50807;52.436;13.346;2023-04-01T01:58:20;99194.00;;;14.70
15845;BMP180;50807;52.436;13.346;2023-04-01T01:58:58;99188.00;;;14.70
15845;BMP180;50807;52.436;13.346;2023-04-01T01:59:35;99197.00;;;14.70
15845;BMP180;50807;52.436;13.346;2023-04-01T02:00:10;99195.00;;;14.70
15845;BMP180;50807;52.436;13.346;2023-04-01T02:00:48;99197.00;;;14.70
15845;BMP180;50807;52.436;13.346;2023-04-01T02:01:24;99195.00;;;14.70
15845;BMP180;50807;52.436;13.346;2023-04-01T02:01:59;99195.00;;;14.80
15845;BMP180;50807;52.436;13.346;2023-04-01T02:02:31;99203.00;;;14.80
15845;BMP180;50807;52.436;13.346;2023-04-01T02:03:04;99205.00;;;14.80
15845;BMP180;50807;52.436;13.346;2023-04-01T02:03:39;99198.00;;;14.80
15845;BMP180;50807;52.436;13.346;2023-04-01T02:04:13;99208.00;;;14.80
15845;BMP180;50807;52.436;13.346;2023-04-01T02:04:46;99214.00;;;14.80
15845;BMP180;50807;52.436;13.346;2023-04-01T02:05:21;99198.00;;;14.80
15845;BMP180;50807;52.436;13.346;2023-04-01T02:05:59;99195.00;;;14.80
15845;BMP180;50807;52.436;13.346;2023-04-01T02:06:35;99200.00;;;14.80
15845;BMP180;50807;52.436;13.346;2023-04-01T02:07:14;99181.00;;;14.80
15845;BMP180;50807;52.436;13.346;2023-04-01T02:07:52;99199.00;;;14.70
15845;BMP180;50807;52.436;13.346;2023-04-01T02:08:30;99198.00;;;14.70
15845;BMP180;50807;52.436;13.346;2023-04-01T02:09:06;99190.00;;;14.80
15845;BMP180;50807;52.436;13.346;2023-04-01T02:09:38;99193.00;;;14.80
15845;BMP180;50807;52.436;13.346;2023-04-01T02:10:10;99196.00;;;14.80
15845;BMP180;50807;52.436;13.346;2023-04-01T02:10:46;99208.00;;;14.80
15845;BMP180;50807;52.436;13.346;2023-04-01T02:11:26;99200.00;;;14.70
15845;BMP180;50807;52.436;13.346;2023-04-01T02:12:02;99204.00;;;14.80
15845;BMP180;50807;52.436;13.346;2023-04-01T02:12:36;99206.00;;;14.80
15845;BMP180;50807;52.436;13.346;2023-04-01T02:13:17;99190.00;;;14.70
15845;BMP180;50807;52.436;13.346;2023-04-01T02:13:54;99202.00;;;14.80
15845;BMP180;50807;52.436;13.346;2023-04-01T02:14:30;99205.00;;;14.80
15845;BMP180;50807;52.436;13.346;2023-04-01T02:15:09;99194.00;;;14.80
15845;BMP180;50807;52.436;13.346;2023-04-01T02:15:48;99195.00;;;14.70
15845;BMP180;50807;52.436;13.346;2023-04-01T02:16:27;99193.00;;;14.80
15845;BMP180;50807;52.436;13.346;2023-04-01T02:17:04;99193.00;;;14.80
15845;BMP180;50807;52.436;13.346;2023-04-01T02:17:43;99202.00;;;14.80
15845;BMP180;50807;52.436;13.346;2023-04-01T02:18:16;99197.00;;;14.80
15845;BMP180;50807;52.436;13.346;2023-04-01T02:18:51;99197.00;;;14.80
15845;BMP180;50807;52.436;13.346;2023-04-01T02:19:31;99200.00;;;14.80
15845;BMP180;50807;52.436;13.346;2023-04-01T02:20:09;99194.00;;;14.80
15845;BMP180;50807;52.436;13.346;2023-04-01T02:20:42;99202.00;;;14.80
15845;BMP180;50807;52.436;13.346;2023-04-01T02:21:19;99200.00;;;14.80
15845;BMP180;50807;52.436;13.346;2023-04-01T02:21:54;99203.00;;;14.80
15845;BMP180;50807;52.436;13.346;2023-04-01T02:22:30;99206.00;;;14.80
15845;BMP180;50807;52.436;13.346;2023-04-01T02:23:04;99197.00;;;14.80
15845;BMP180;50807;52.436;13.346;2023-04-01T02:23:37;99194.00;;;14.80
15845;BMP180;50807;52.436;13.346;2023-04-01T02:24:13;99207.00;;;14.80
15845;BMP180;50807;52.436;13.346;2023-04-01T02:24:45;99202.00;;;14.90
15845;BMP180;50807;52.436;13.346;2023-04-01T02:25:22;99201.00;;;14.80
15845;BMP180;50807;52.436;13.346;2023-04-01T02:25:54;99203.00;;;14.90
15845;BMP180;50807;52.436;13.346;2023-04-01T02:26:27;99202.00;;;14.90
15845;BMP180;50807;52.436;13.346;2023-04-01T02:26:57;99199.00;;;14.90
15845;BMP180;50807;52.436;13.346;2023-04-01T02:27:30;99203.00;;;14.90
15845;BMP180;50807;52.436;13.346;2023-04-01T02:28:05;99205.00;;;14.90
15845;BMP180;50807;52.436;13.346;2023-04-01T02:28:38;99199.00;;;14.90
15845;BMP180;50807;52.436;13.346;2023-04-01T02:29:12;99199.00;;;14.90
15845;BMP180;50807;52.436;13.346;2023-04-01T02:29:44;99203.00;;;14.90
15845;BMP180;50807;52.436;13.346;2023-04-01T02:30:17;99205.00;;;14.90
15845;BMP180;50807;52.436;13.346;2023-04-01T02:30:49;99198.00;;;14.90
15845;BMP180;50807;52.436;13.346;2023-04-01T02:31:22;99200.00;;;14.90
15845;BMP180;50807;52.436;13.346;2023-04-01T02:31:54;99200.00;;;14.90
15845;BMP180;50807;52.436;13.346;2023-04-01T02:32:27;99205.00;;;14.90
15845;BMP180;50807;52.436;13.346;2023-04-01T02:33:01;99198.00;;;14.90
15845;BMP180;50807;52.436;13.346;2023-04-01T02:33:32;99204.00;;;14.90
15845;BMP180;50807;52.436;13.346;2023-04-01T02:34:03;99204.00;;;14.90
15845;BMP180;50807;52.436;13.346;2023-04-01T02:34:36;99200.00;;;14.90
15845;BMP180;50807;52.436;13.346;2023-04-01T02:35:10;99201.00;;;14.90
15845;BMP180;50807;52.436;13.346;2023-04-01T02:35:42;99202.00;;;14.90
15845;BMP180;50807;52.436;13.346;2023-04-01T02:36:17;99201.00;;;14.90
15845;BMP180;50807;52.436;13.346;2023-04-01T02:36:49;99203.00;;;14.90
15845;BMP180;50807;52.436;13.346;2023-04-01T02:37:21;99198.00;;;14.90
15845;BMP180;50807;52.436;13.346;2023-04-01T02:37:54;99209.00;;;14.90
15845;BMP180;50807;52.436;13.346;2023-04-01T02:38:26;99208.00;;;14.90
15845;BMP180;50807;52.436;13.346;2023-04-01T02:38:58;99216.00;;;14.90
15845;BMP180;50807;52.436;13.346;2023-04-01T02:39:32;99205.00;;;14.90
15845;BMP180;50807;52.436;13.346;2023-04-01T02:40:06;99207.00;;;14.80
15845;BMP180;50807;52.436;13.346;2023-04-01T02:40:45;99208.00;;;14.80
15845;BMP180;50807;52.436;13.346;2023-04-01T02:41:17;99202.00;;;14.80
15845;BMP180;50807;52.436;13.346;2023-04-01T02:41:48;99203.00;;;14.80
15845;BMP180;50807;52.436;13.346;2023-04-01T02:42:19;99209.00;;;14.90
15845;BMP180;50807;52.436;13.346;2023-04-01T02:42:50;99212.00;;;14.90
15845;BMP180;50807;52.436;13.346;2023-04-01T02:43:23;99213.00;;;14.90
15845;BMP180;50807;52.436;13.346;2023-04-01T02:43:53;99214.00;;;14.90
15845;BMP180;50807;52.436;13.346;2023-04-01T02:44:25;99214.00;;;14.90
15845;BMP180;50807;52.436;13.346;2023-04-01T02:44:57;99209.00;;;14.90
15845;BMP180;50807;52.436;13.346;2023-04-01T02:45:27;99206.00;;;14.90
15845;BMP180;50807;52.436;13.346;2023-04-01T02:45:58;99206.00;;;14.90
15845;BMP180;50807;52.436;13.346;2023-04-01T02:46:30;99210.00;;;14.90
15845;BMP180;50807;52.436;13.346;2023-04-01T02:47:01;99209.00;;;14.90
15845;BMP180;50807;52.436;13.346;2023-04-01T02:47:32;99203.00;;;14.90
15845;BMP180;50807;52.436;13.346;2023-04-01T02:48:04;99214.00;;;14.90
15845;BMP180;50807;52.436;13.346;2023-04-01T02:48:35;99220.00;;;14.90
15845;BMP180;50807;52.436;13.346;2023-04-01T02:49:06;99206.00;;;14.90
15845;BMP180;50807;52.436;13.346;2023-04-01T02:49:37;99215.00;;;14.90
15845;BMP180;50807;52.436;13.346;2023-04-01T02:50:10;99212.00;;;14.90
15845;BMP180;50807;52.436;13.346;2023-04-01T02:50:40;99218.00;;;14.90
15845;BMP180;50807;52.436;13.346;2023-04-01T02:51:11;99216.00;;;14.90
15845;BMP180;50807;52.436;13.346;2023-04-01T02:51:44;99213.00;;;14.90
15845;BMP180;50807;52.436;13.346;2023-04-01T02:52:15;99216.00;;;14.90
15845;BMP180;50807;52.436;13.346;2023-04-01T02:52:46;99214.00;;;14.90
15845;BMP180;50807;52.436;13.346;2023-04-01T02:53:17;99219.00;;;15.00
15845;BMP180;50807;52.436;13.346;2023-04-01T02:53:48;99214.00;;;14.90
15845;BMP180;50807;52.436;13.346;2023-04-01T02:54:19;99223.00;;;14.90
15845;BMP180;50807;52.436;13.346;2023-04-01T02:54:51;99224.00;;;15.00
15845;BMP180;50807;52.436;13.346;2023-04-01T02:55:22;99223.00;;;14.90
15845;BMP180;50807;52.436;13.346;2023-04-01T02:55:52;99224.00;;;15.00
15845;BMP180;50807;52.436;13.346;2023-04-01T02:56:24;99217.00;;;15.00
15845;BMP180;50807;52.436;13.346;2023-04-01T02:56:56;99220.00;;;15.00
15845;BMP180;50807;52.436;13.346;2023-04-01T02:57:27;99220.00;;;15.00
15845;BMP180;50807;52.436;13.346;2023-04-01T02:57:59;99224.00;;;15.00
15845;BMP180;50807;52.436;13.346;2023-04-01T02:58:30;99225.00;;;15.00
15845;BMP180;50807;52.436;13.346;2023-04-01T02:59:01;99220.00;;;15.00
15845;BMP180;50807;52.436;13.346;2023-04-01T02:59:32;99227.00;;;15.00
15845;BMP180;50807;52.436;13.346;2023-04-01T03:00:05;99229.00;;;15.00
15845;BMP180;50807;52.436;13.346;2023-04-01T03:00:41;99234.00;;;15.00
15845;BMP180;50807;52.436;13.346;2023-04-01T03:01:12;99216.00;;;15.00
15845;BMP180;50807;52.436;13.346;2023-04-01T03:01:43;99221.00;;;15.00
15845;BMP180;50807;52.436;13.346;2023-04-01T03:02:15;99225.00;;;15.00
15845;BMP180;50807;52.436;13.346;2023-04-01T03:02:46;99229.00;;;15.00
15845;BMP180;50807;52.436;13.346;2023-04-01T03:03:17;99223.00;;;15.00
15845;BMP180;50807;52.436;13.346;2023-04-01T03:03:49;99227.00;;;15.00
15845;BMP180;50807;52.436;13.346;2023-04-01T03:04:20;99229.00;;;15.00
15845;BMP180;50807;52.436;13.346;2023-04-01T03:04:50;99220.00;;;15.00
15845;BMP180;50807;52.436;13.346;2023-04-01T03:05:21;99222.00;;;15.00
15845;BMP180;50807;52.436;13.346;2023-04-01T03:05:53;99231.00;;;15.00
15845;BMP180;50807;52.436;13.346;2023-04-01T03:06:26;99232.00;;;15.00
15845;BMP180;50807;52.436;13.346;2023-04-01T03:06:58;99226.00;;;15.00
15845;BMP180;50807;52.436;13.346;2023-04-01T03:07:30;99232.00;;;15.10
15845;BMP180;50807;52.436;13.346;2023-04-01T03:08:01;99229.00;;;15.00
15845;BMP180;50807;52.436;13.346;2023-04-01T03:08:33;99232.00;;;15.00
15845;BMP180;50807;52.436;13.346;2023-04-01T03:09:04;99229.00;;;15.00
15845;BMP180;50807;52.436;13.346;2023-04-01T03:09:35;99234.00;;;15.00
15845;BMP180;50807;52.436;13.346;2023-04-01T03:10:08;99229.00;;;15.00
15845;BMP180;50807;52.436;13.346;2023-04-01T03:10:40;99230.00;;;15.00
15845;BMP180;50807;52.436;13.346;2023-04-01T03:11:11;99232.00;;;15.00
15845;BMP180;50807;52.436;13.346;2023-04-01T03:11:42;99228.00;;;15.00
15845;BMP180;50807;52.436;13.346;2023-04-01T03:12:14;99230.00;;;15.00
15845;BMP180;50807;52.436;13.346;2023-04-01T03:12:45;99231.00;;;15.00
15845;BMP180;50807;52.436;13.346;2023-04-01T03:13:16;99221.00;;;15.00
15845;BMP180;50807;52.436;13.346;2023-04-01T03:13:47;99227.00;;;15.00
15845;BMP180;50807;52.436;13.346;2023-04-01T03:14:19;99225.00;;;15.00
15845;BMP180;50807;52.436;13.346;2023-04-01T03:14:49;99230.00;;;15.10
15845;BMP180;50807;52.436;13.346;2023-04-01T03:15:21;99231.00;;;15.10
15845;BMP180;50807;52.436;13.346;2023-04-01T03:15:52;99235.00;;;15.10
15845;BMP180;50807;52.436;13.346;2023-04-01T03:16:23;99219.00;;;15.10
15845;BMP180;50807;52.436;13.346;2023-04-01T03:16:55;99217.00;;;15.10
15845;BMP180;50807;52.436;13.346;2023-04-01T03:17:26;99237.00;;;15.10
15845;BMP180;50807;52.436;13.346;2023-04-01T03:17:57;99233.00;;;15.10